Terminal Aerodrome Forecast
Issued by NWS San Angelo, TX

Home | Current Version | Previous Version | Text Only | Print | Product List | Glossary On
Versions: 1 2 3 4 5 6 7 8 9 10 11 12 13
674
FTUS44 KSJT 241725
TAFABI
TAF
KABI 241725Z 2418/2518 18014G22KT P6SM BKN050
     FM242200 16013G20KT P6SM VCTS BKN040CB
      TEMPO 2423/2501 3SM TSRA BKN040CB
     FM250100 16011KT 5SM SHRA VCTS OVC050CB
     FM250900 16007KT P6SM VCSH OVC050=

USA.gov is the U.S. government's official web portal to all federal, state and local government web resources and services.